createdAt,value
2018-07-24T00:02:14.731Z,10.20
2018-07-24T00:04:43.950Z,15.63
2018-07-24T00:07:13.011Z,10.60
2018-07-24T00:09:42.627Z,12.33
2018-07-24T00:12:11.917Z,13.43
2018-07-24T00:14:41.636Z,14.77
2018-07-24T00:17:10.643Z,14.70
2018-07-24T00:19:40.014Z,11.07
2018-07-24T00:22:09.451Z,12.97
2018-07-24T00:24:38.999Z,12.93
2018-07-24T00:27:08.241Z,11.37
2018-07-24T00:29:37.605Z,9.57
2018-07-24T00:32:06.927Z,12.97
2018-07-24T00:34:36.321Z,13.30
2018-07-24T00:37:05.703Z,10.13
2018-07-24T00:39:35.187Z,9.10
2018-07-24T00:42:04.292Z,10.77
2018-07-24T00:44:33.551Z,9.50
2018-07-24T00:47:03.115Z,14.57
2018-07-24T00:49:32.355Z,11.57
2018-07-24T00:52:01.505Z,9.70
2018-07-24T00:54:30.791Z,10.93
2018-07-24T00:56:59.985Z,9.73
2018-07-24T00:59:29.149Z,11.70
2018-07-24T01:01:58.384Z,11.33
2018-07-24T01:04:27.925Z,12.97
2018-07-24T01:06:57.320Z,11.93
2018-07-24T01:09:26.431Z,13.77
2018-07-24T01:11:55.748Z,16.70
2018-07-24T01:14:24.806Z,18.30
2018-07-24T01:16:54.095Z,13.63
2018-07-24T01:19:23.335Z,12.30
2018-07-24T01:21:53.153Z,13.73
2018-07-24T01:24:22.604Z,12.83
2018-07-24T01:26:51.732Z,11.37
2018-07-24T01:29:20.843Z,11.47
2018-07-24T01:31:49.953Z,11.23
2018-07-24T01:34:19.040Z,14.20
2018-07-24T01:36:48.148Z,12.03
2018-07-24T01:39:17.376Z,13.80
2018-07-24T01:41:46.460Z,11.73
2018-07-24T01:44:15.920Z,13.30
2018-07-24T01:46:45.128Z,11.07
2018-07-24T01:49:14.517Z,13.87
2018-07-24T01:51:43.706Z,17.00
2018-07-24T01:54:12.964Z,15.77
2018-07-24T01:56:42.543Z,12.47
2018-07-24T01:59:12.143Z,16.67
2018-07-24T02:01:41.767Z,16.07
2018-07-24T02:04:10.784Z,13.30
2018-07-24T02:06:40.020Z,12.47
2018-07-24T02:09:10.475Z,16.60
2018-07-24T02:11:39.918Z,14.97
2018-07-24T02:14:09.524Z,15.13
2018-07-24T02:16:38.887Z,16.37
2018-07-24T02:19:08.018Z,15.27
2018-07-24T02:21:37.251Z,14.37
2018-07-24T02:24:06.424Z,15.00
2018-07-24T02:26:35.653Z,13.93
2018-07-24T02:29:05.219Z,14.10
2018-07-24T02:31:34.615Z,14.47
2018-07-24T02:34:03.963Z,16.10
2018-07-24T02:36:33.387Z,15.17
2018-07-24T02:39:02.636Z,17.50
2018-07-24T02:41:31.925Z,17.73
2018-07-24T02:44:00.943Z,16.87
2018-07-24T02:46:30.129Z,16.10
2018-07-24T02:48:59.559Z,15.33
2018-07-24T02:51:28.702Z,16.07
2018-07-24T02:53:57.679Z,16.93
2018-07-24T02:56:26.876Z,19.17
2018-07-24T02:58:55.855Z,20.57
2018-07-24T03:01:25.479Z,23.97
2018-07-24T03:03:54.581Z,35.10
2018-07-24T03:06:24.029Z,18.97
2018-07-24T03:08:53.220Z,15.73
2018-07-24T03:11:22.420Z,16.63
2018-07-24T03:13:51.864Z,15.93
2018-07-24T03:16:21.459Z,19.43
2018-07-24T03:18:50.698Z,15.67
2018-07-24T03:21:19.884Z,18.27
2018-07-24T03:23:49.354Z,18.57
2018-07-24T03:26:17.996Z,20.50
2018-07-24T03:28:47.471Z,17.27
2018-07-24T03:31:16.820Z,19.20
2018-07-24T03:33:46.220Z,18.43
2018-07-24T03:36:15.492Z,18.60
2018-07-24T03:38:44.751Z,29.87
2018-07-24T03:41:13.864Z,19.83
2018-07-24T03:43:43.108Z,22.27
2018-07-24T03:46:12.355Z,21.70
2018-07-24T03:48:41.374Z,20.87
2018-07-24T03:51:10.802Z,21.53
2018-07-24T03:53:40.010Z,20.53
2018-07-24T03:56:09.348Z,21.63
2018-07-24T03:58:38.337Z,18.63
2018-07-24T04:01:07.831Z,25.57
2018-07-24T04:03:37.009Z,24.47
2018-07-24T04:06:06.100Z,26.33
2018-07-24T04:08:35.595Z,24.90
2018-07-24T04:11:04.798Z,23.27
2018-07-24T04:13:34.488Z,24.13
2018-07-24T04:16:03.815Z,23.40
2018-07-24T04:18:43.788Z,23.53
2018-07-24T04:21:13.207Z,23.53
2018-07-24T04:23:42.614Z,25.40
2018-07-24T04:26:11.876Z,27.37
2018-07-24T04:28:42.343Z,28.40
2018-07-24T04:31:11.871Z,20.77
2018-07-24T04:33:41.837Z,21.13
2018-07-24T04:36:11.533Z,19.63
2018-07-24T04:41:15.108Z,20.73
2018-07-24T04:43:44.378Z,36.17
2018-07-24T04:46:13.596Z,26.67
2018-07-24T04:48:43.352Z,20.80
2018-07-24T04:51:12.625Z,18.07
2018-07-24T04:53:42.128Z,19.57
2018-07-24T04:56:11.304Z,18.57
2018-07-24T04:58:40.665Z,16.20
2018-07-24T05:01:10.240Z,14.70
2018-07-24T05:03:40.940Z,14.53
2018-07-24T05:06:10.180Z,17.03
2018-07-24T05:08:39.939Z,14.50
2018-07-24T05:11:09.268Z,15.17
2018-07-24T05:13:38.427Z,12.97
2018-07-24T05:16:07.397Z,14.93
2018-07-24T05:18:36.838Z,15.03
2018-07-24T05:21:06.362Z,13.17
2018-07-24T05:23:35.741Z,16.37
2018-07-24T05:26:05.438Z,13.30
2018-07-24T05:28:34.820Z,15.97
2018-07-24T05:31:04.290Z,14.97
2018-07-24T05:33:33.614Z,14.30
2018-07-24T05:36:02.901Z,17.10
2018-07-24T05:38:32.601Z,15.63
2018-07-24T05:41:02.241Z,21.67
2018-07-24T05:43:31.586Z,19.17
2018-07-24T05:46:00.901Z,15.87
2018-07-24T05:48:30.283Z,16.63
2018-07-24T05:50:59.808Z,15.90
2018-07-24T05:53:29.136Z,16.97
2018-07-24T05:55:58.822Z,16.87
2018-07-24T05:58:28.263Z,17.40
2018-07-24T06:00:57.613Z,12.83
2018-07-24T06:03:26.921Z,13.23
2018-07-24T06:05:56.193Z,14.47
2018-07-24T06:08:25.612Z,11.10
2018-07-24T06:10:54.910Z,9.67
2018-07-24T06:13:24.275Z,11.13
2018-07-24T06:15:54.241Z,11.07
2018-07-24T06:18:23.321Z,10.43
2018-07-24T06:20:52.986Z,10.57
2018-07-24T06:23:22.096Z,9.57
2018-07-24T06:25:51.442Z,13.30
2018-07-24T06:28:21.016Z,10.07
2018-07-24T06:30:50.372Z,9.33
2018-07-24T06:33:19.528Z,8.67
2018-07-24T06:35:48.944Z,14.95
2018-07-24T06:38:18.153Z,10.97
2018-07-24T06:40:48.608Z,10.00
2018-07-24T06:43:17.845Z,8.63
2018-07-24T06:45:46.985Z,8.60
2018-07-24T06:48:16.273Z,11.28
2018-07-24T06:50:45.413Z,9.63
2018-07-24T06:53:14.652Z,10.75
2018-07-24T06:55:43.976Z,11.03
2018-07-24T06:58:13.245Z,7.28
2018-07-24T07:00:41.954Z,10.40
2018-07-24T07:03:11.169Z,10.40
2018-07-24T07:05:40.663Z,7.80
2018-07-24T07:08:10.699Z,7.10
2018-07-24T07:10:40.004Z,6.65
2018-07-24T07:13:09.126Z,7.10
2018-07-24T07:15:38.325Z,7.40
2018-07-24T07:18:07.879Z,6.33
2018-07-24T07:20:37.119Z,9.65
2018-07-24T07:23:06.925Z,5.95
2018-07-24T07:25:36.754Z,6.65
2018-07-24T07:28:06.084Z,7.30
2018-07-24T07:30:35.229Z,6.70
2018-07-24T07:33:04.753Z,7.15
2018-07-24T07:35:33.971Z,7.28
2018-07-24T07:38:02.473Z,8.85
2018-07-24T07:40:31.865Z,7.28
2018-07-24T07:43:01.294Z,9.78
2018-07-24T07:45:30.453Z,7.35
2018-07-24T07:47:59.960Z,7.17
2018-07-24T07:50:29.012Z,7.22
2018-07-24T07:52:58.272Z,8.33
2018-07-24T07:55:27.321Z,7.65
2018-07-24T07:57:58.472Z,9.05
2018-07-24T08:00:28.816Z,7.28
2018-07-24T08:02:58.803Z,7.17
2018-07-24T08:05:28.438Z,7.17
2018-07-24T08:07:57.682Z,7.22
2018-07-24T08:10:26.820Z,7.40
2018-07-24T08:12:55.643Z,7.00
2018-07-24T08:15:24.988Z,7.60
2018-07-24T08:17:54.329Z,8.48
2018-07-24T08:20:23.577Z,8.18
2018-07-24T08:22:53.126Z,8.93
2018-07-24T08:25:22.434Z,7.45
2018-07-24T08:27:52.093Z,7.25
2018-07-24T08:30:22.210Z,7.17
2018-07-24T08:32:51.786Z,10.08
2018-07-24T08:35:21.462Z,11.97
2018-07-24T08:37:50.808Z,8.00
2018-07-24T08:40:19.949Z,8.75
2018-07-24T08:42:49.449Z,7.35
2018-07-24T08:45:18.873Z,7.45
2018-07-24T08:47:48.274Z,7.25
2018-07-24T08:50:18.139Z,7.37
2018-07-24T08:52:47.862Z,7.60
2018-07-24T08:55:17.887Z,10.53
2018-07-24T08:57:46.891Z,7.03
2018-07-24T09:00:16.280Z,7.53
2018-07-24T09:02:45.925Z,7.17
2018-07-24T09:05:15.114Z,7.47
2018-07-24T09:07:44.248Z,8.68
2018-07-24T09:10:16.785Z,9.30
2018-07-24T09:12:46.659Z,7.92
2018-07-24T09:15:16.356Z,7.25
2018-07-24T09:17:45.647Z,7.47
2018-07-24T09:20:14.852Z,13.55
2018-07-24T09:22:44.335Z,8.95
2018-07-24T09:25:13.589Z,7.70
2018-07-24T09:27:42.900Z,9.23
2018-07-24T09:30:12.435Z,8.38
2018-07-24T09:32:41.538Z,7.78
2018-07-24T09:35:10.776Z,9.25
2018-07-24T09:37:40.000Z,9.33
2018-07-24T09:40:09.182Z,7.83
2018-07-24T09:42:38.621Z,11.12
2018-07-24T09:45:08.299Z,9.08
2018-07-24T09:47:37.337Z,7.78
2018-07-24T09:50:06.828Z,7.50
2018-07-24T09:52:36.101Z,12.47
2018-07-24T09:55:05.474Z,12.07
2018-07-24T09:57:35.013Z,8.25
2018-07-24T10:00:04.922Z,8.43
2018-07-24T10:02:34.993Z,11.38
2018-07-24T10:05:04.266Z,7.75
2018-07-24T10:07:33.705Z,9.45
2018-07-24T10:10:03.373Z,8.63
2018-07-24T10:12:32.607Z,9.65
2018-07-24T10:15:01.888Z,8.05
2018-07-24T10:17:31.575Z,13.38
2018-07-24T10:20:00.739Z,7.72
2018-07-24T10:22:30.068Z,8.53
2018-07-24T10:24:59.917Z,11.65
2018-07-24T10:27:29.193Z,10.00
2018-07-24T10:29:59.349Z,7.45
2018-07-24T10:32:28.544Z,8.10
2018-07-24T10:34:58.509Z,8.03
2018-07-24T10:37:27.846Z,9.43
2018-07-24T10:39:56.930Z,8.85
2018-07-24T10:42:26.403Z,8.55
2018-07-24T10:44:56.007Z,9.08
2018-07-24T10:47:25.129Z,9.23
2018-07-24T10:49:54.475Z,7.45
2018-07-24T10:52:23.812Z,8.43
2018-07-24T10:54:52.930Z,7.58
2018-07-24T10:57:22.067Z,7.53
2018-07-24T10:59:51.295Z,7.45
2018-07-24T11:02:20.443Z,7.62
2018-07-24T11:04:49.658Z,7.15
2018-07-24T11:07:19.288Z,7.92
2018-07-24T11:09:48.448Z,8.15
2018-07-24T11:12:17.756Z,8.85
2018-07-24T11:14:46.745Z,7.22
2018-07-24T11:17:16.205Z,6.75
2018-07-24T11:19:45.496Z,8.40
2018-07-24T11:22:14.836Z,8.75
2018-07-24T11:24:44.081Z,6.65
2018-07-24T11:27:13.368Z,7.50
2018-07-24T11:29:43.319Z,6.40
2018-07-24T11:32:12.490Z,6.60
2018-07-24T11:34:42.092Z,7.58
2018-07-24T11:37:11.277Z,9.18
2018-07-24T11:39:40.711Z,6.50
2018-07-24T11:42:09.974Z,6.60
2018-07-24T11:44:39.365Z,6.22
2018-07-24T11:47:08.824Z,6.35
2018-07-24T11:49:38.245Z,7.05
2018-07-24T11:52:07.688Z,6.12
2018-07-24T11:54:37.096Z,6.33
2018-07-24T11:57:06.453Z,7.00
2018-07-24T11:59:36.257Z,6.17
2018-07-24T12:02:05.506Z,6.97
2018-07-24T12:04:34.586Z,6.33
2018-07-24T12:07:04.131Z,8.43
2018-07-24T12:09:33.704Z,6.00
2018-07-24T12:12:02.841Z,6.92
2018-07-24T12:14:32.355Z,7.60
2018-07-24T12:17:01.809Z,6.95
2018-07-24T12:19:31.800Z,5.67
2018-07-24T12:22:01.382Z,8.75
2018-07-24T12:24:30.627Z,8.68
2018-07-24T12:27:00.161Z,6.70
2018-07-24T12:29:29.748Z,6.62
2018-07-24T12:31:58.868Z,6.28
2018-07-24T12:34:28.148Z,7.60
2018-07-24T12:36:57.303Z,5.72
2018-07-24T12:39:26.015Z,5.97
2018-07-24T12:41:54.917Z,7.40
2018-07-24T12:44:23.754Z,6.22
2018-07-24T12:46:52.700Z,7.08
2018-07-24T12:49:22.044Z,8.00
2018-07-24T12:51:51.687Z,7.25
2018-07-24T12:54:21.301Z,7.78
2018-07-24T12:56:50.322Z,6.17
2018-07-24T12:59:19.931Z,7.92
2018-07-24T13:01:48.927Z,9.05
2018-07-24T13:04:18.133Z,7.60
2018-07-24T13:06:47.427Z,8.53
2018-07-24T13:09:16.673Z,6.70
2018-07-24T13:11:45.594Z,6.35
2018-07-24T13:14:14.823Z,7.55
2018-07-24T13:16:44.037Z,6.05
2018-07-24T13:19:13.605Z,6.62
2018-07-24T13:21:43.316Z,7.25
2018-07-24T13:24:12.673Z,7.20
2018-07-24T13:26:41.400Z,8.58
2018-07-24T13:29:10.573Z,7.42
2018-07-24T13:31:39.966Z,10.13
2018-07-24T13:34:09.468Z,7.90
2018-07-24T13:36:38.800Z,6.78
2018-07-24T13:39:09.641Z,6.90
2018-07-24T13:41:39.153Z,6.72
2018-07-24T13:44:09.123Z,9.23
2018-07-24T13:46:39.115Z,9.05
2018-07-24T13:49:08.330Z,8.03
2018-07-24T13:51:37.485Z,8.83
2018-07-24T13:54:06.657Z,7.00
2018-07-24T13:56:36.529Z,6.50
2018-07-24T13:59:05.760Z,6.85
2018-07-24T14:01:35.153Z,6.40
2018-07-24T14:04:04.345Z,7.58
2018-07-24T14:06:33.751Z,7.87
2018-07-24T14:09:03.327Z,7.15
2018-07-24T14:11:32.684Z,6.65
2018-07-24T14:14:02.263Z,6.85
2018-07-24T14:16:31.659Z,8.10
2018-07-24T14:19:01.341Z,7.70
2018-07-24T14:21:30.983Z,12.98
2018-07-24T14:24:00.376Z,17.62
2018-07-24T14:26:29.680Z,9.08
2018-07-24T14:28:58.981Z,11.57
2018-07-24T14:31:28.417Z,12.45
2018-07-24T14:33:57.704Z,15.05
2018-07-24T14:36:27.157Z,10.53
2018-07-24T14:38:56.624Z,10.05
2018-07-24T14:41:25.725Z,6.72
2018-07-24T14:43:54.965Z,10.30
2018-07-24T14:46:24.440Z,7.95
2018-07-24T14:48:53.630Z,9.18
2018-07-24T14:51:23.007Z,9.78
2018-07-24T14:53:52.437Z,6.72
2018-07-24T14:56:21.893Z,8.98
2018-07-24T14:58:51.193Z,8.35
2018-07-24T15:01:20.724Z,6.75
2018-07-24T15:03:50.029Z,6.95
2018-07-24T15:06:19.234Z,7.62
2018-07-24T15:08:48.572Z,9.75
2018-07-24T15:11:19.359Z,7.62
2018-07-24T15:13:48.990Z,9.35
2018-07-24T15:16:18.352Z,7.45
2018-07-24T15:18:47.547Z,6.80
2018-07-24T15:21:17.687Z,8.65
2018-07-24T15:23:47.351Z,7.60
2018-07-24T15:26:16.765Z,7.10
2018-07-24T15:28:45.977Z,8.28
2018-07-24T15:31:15.808Z,8.33
2018-07-24T15:33:45.274Z,9.08
2018-07-24T15:36:15.337Z,7.67
2018-07-24T15:38:44.836Z,7.80
2018-07-24T15:41:14.209Z,8.45
2018-07-24T15:43:45.522Z,11.10
2018-07-24T15:46:15.077Z,10.53
2018-07-24T15:48:44.025Z,12.70
2018-07-24T15:51:13.605Z,8.73
2018-07-24T15:53:42.945Z,11.08
2018-07-24T15:56:13.722Z,10.53
2018-07-24T15:58:43.828Z,9.43
2018-07-24T16:01:14.571Z,11.65
2018-07-24T16:03:43.715Z,10.85
2018-07-24T16:06:13.080Z,9.55
2018-07-24T16:08:42.381Z,9.65
2018-07-24T16:11:11.889Z,10.23
2018-07-24T16:13:41.207Z,14.23
2018-07-24T16:16:12.353Z,12.07
2018-07-24T16:18:41.899Z,12.93
2018-07-24T16:21:11.052Z,14.00
2018-07-24T16:23:40.262Z,11.03
2018-07-24T16:26:10.533Z,10.23
2018-07-24T16:28:39.747Z,11.83
2018-07-24T16:31:08.880Z,12.50
2018-07-24T16:33:38.309Z,10.78
2018-07-24T16:36:07.560Z,10.90
2018-07-24T16:38:36.728Z,9.88
2018-07-24T16:41:06.066Z,11.45
2018-07-24T16:43:36.785Z,10.98
2018-07-24T16:46:11.472Z,11.43
2018-07-24T16:48:40.399Z,12.13
2018-07-24T16:51:10.093Z,12.53
2018-07-24T16:53:39.379Z,13.08
2018-07-24T16:56:08.745Z,10.95
2018-07-24T16:58:37.952Z,10.82
2018-07-24T17:01:07.423Z,11.60
2018-07-24T17:03:37.264Z,11.12
2018-07-24T17:06:06.430Z,9.80
2018-07-24T17:08:35.551Z,10.18
2018-07-24T17:11:06.267Z,10.70
2018-07-24T17:13:35.703Z,11.05
2018-07-24T17:16:07.377Z,10.40
2018-07-24T17:18:37.737Z,11.75
2018-07-24T17:21:07.197Z,11.03
2018-07-24T17:23:36.811Z,13.70
2018-07-24T17:26:06.014Z,14.80
2018-07-24T17:28:35.474Z,20.00
2018-07-24T17:31:04.767Z,37.53
2018-07-24T17:33:33.909Z,23.52
2018-07-24T17:36:03.760Z,12.70
2018-07-24T17:38:36.132Z,15.80
2018-07-24T17:41:06.771Z,12.85
2018-07-24T17:43:35.963Z,15.00
2018-07-24T17:46:06.664Z,13.60
2018-07-24T17:48:35.905Z,13.03
2018-07-24T17:51:05.400Z,12.47
2018-07-24T17:53:35.558Z,14.68
2018-07-24T17:56:05.056Z,14.15
2018-07-24T17:58:34.791Z,13.90
2018-07-24T18:01:04.338Z,14.30
2018-07-24T18:03:33.719Z,16.70
2018-07-24T18:06:02.842Z,15.63
2018-07-24T18:08:32.385Z,15.98
2018-07-24T18:11:03.055Z,14.65
2018-07-24T18:13:32.404Z,17.92
2018-07-24T18:16:01.619Z,22.85
2018-07-24T18:18:30.872Z,30.20
2018-07-24T18:21:00.346Z,28.95
2018-07-24T18:23:29.698Z,23.25
2018-07-24T18:25:59.163Z,26.73
2018-07-24T18:28:28.637Z,24.63
2018-07-24T18:30:57.665Z,24.45
2018-07-24T18:33:27.293Z,29.27
2018-07-24T18:35:56.578Z,22.40
2018-07-24T18:38:26.238Z,20.27
2018-07-24T18:40:55.497Z,24.63
2018-07-24T18:43:24.991Z,23.98
2018-07-24T18:45:54.536Z,22.25
2018-07-24T18:48:24.022Z,20.95
2018-07-24T18:50:53.351Z,22.22
2018-07-24T18:53:22.774Z,19.40
2018-07-24T18:55:52.199Z,19.12
2018-07-24T18:58:21.629Z,25.52
2018-07-24T19:00:50.851Z,20.70
2018-07-24T19:03:20.501Z,22.65
2018-07-24T19:05:49.599Z,19.75
2018-07-24T19:08:19.141Z,25.00
2018-07-24T19:10:48.828Z,25.43
2018-07-24T19:13:17.888Z,23.32
2018-07-24T19:15:47.805Z,21.27
2018-07-24T19:18:17.118Z,20.33
2018-07-24T19:20:46.219Z,21.55
2018-07-24T19:23:15.485Z,20.27
2018-07-24T19:25:45.023Z,20.02
2018-07-24T19:28:14.561Z,20.10
2018-07-24T19:30:43.760Z,23.73
2018-07-24T19:33:13.428Z,19.03
2018-07-24T19:35:42.964Z,21.12
2018-07-24T19:38:12.420Z,25.97
2018-07-24T19:40:42.073Z,31.00
2018-07-24T19:43:11.766Z,37.13
2018-07-24T19:45:41.214Z,40.50
2018-07-24T19:48:10.626Z,21.80
2018-07-24T19:50:40.095Z,23.40
2018-07-24T19:53:09.470Z,26.13
2018-07-24T19:55:38.659Z,43.47
2018-07-24T19:58:08.001Z,34.53
2018-07-24T20:00:37.253Z,22.37
2018-07-24T20:03:06.617Z,25.17
2018-07-24T20:05:36.022Z,17.97
2018-07-24T20:08:05.169Z,19.37
2018-07-24T20:10:34.706Z,35.03
2018-07-24T20:13:04.304Z,27.83
2018-07-24T20:15:33.725Z,36.50
2018-07-24T20:18:03.177Z,20.70
2018-07-24T20:20:32.436Z,32.43
2018-07-24T20:23:01.750Z,33.23
2018-07-24T20:25:30.876Z,28.23
2018-07-24T20:28:01.690Z,23.83
2018-07-24T20:30:30.846Z,27.27
2018-07-24T20:33:00.221Z,28.80
2018-07-24T20:35:29.654Z,20.30
2018-07-24T20:37:59.140Z,25.37
2018-07-24T20:40:28.414Z,25.43
2018-07-24T20:42:57.800Z,26.43
2018-07-24T20:45:27.100Z,23.47
2018-07-24T20:47:56.172Z,21.90
2018-07-24T20:50:25.723Z,20.70
2018-07-24T20:52:55.140Z,40.47
2018-07-24T20:55:24.343Z,36.30
2018-07-24T20:57:53.974Z,58.97
2018-07-24T21:00:23.134Z,45.07
2018-07-24T21:02:52.727Z,28.67
2018-07-24T21:05:22.046Z,22.13
2018-07-24T21:07:51.395Z,21.70
2018-07-24T21:10:20.837Z,20.13
2018-07-24T21:12:50.623Z,20.27
2018-07-24T21:15:20.417Z,20.20
2018-07-24T21:17:49.938Z,19.03
2018-07-24T21:20:19.473Z,19.40
2018-07-24T21:22:49.096Z,21.00
2018-07-24T21:25:18.727Z,20.67
2018-07-24T21:27:47.990Z,19.97
2018-07-24T21:30:17.223Z,20.60
2018-07-24T21:32:46.682Z,20.77
2018-07-24T21:35:16.014Z,21.27
2018-07-24T21:37:45.286Z,21.30
2018-07-24T21:40:14.796Z,20.73
2018-07-24T21:42:44.100Z,22.20
2018-07-24T21:45:13.526Z,23.30
2018-07-24T21:47:42.704Z,21.90
2018-07-24T21:50:12.069Z,21.93
2018-07-24T21:52:41.307Z,21.97
2018-07-24T21:55:10.704Z,25.63
2018-07-24T21:57:39.808Z,22.93
2018-07-24T22:00:11.039Z,22.07
2018-07-24T22:02:40.390Z,22.00
2018-07-24T22:05:09.752Z,29.23
2018-07-24T22:07:38.921Z,27.10
2018-07-24T22:10:23.794Z,27.93
2018-07-24T22:12:53.791Z,22.33
2018-07-24T22:15:27.010Z,22.03
2018-07-24T22:17:56.576Z,20.60
2018-07-24T22:20:25.842Z,20.77
2018-07-24T22:22:55.282Z,19.03
2018-07-24T22:25:24.610Z,19.43
2018-07-24T22:27:53.876Z,22.00
2018-07-24T22:30:22.509Z,19.13
2018-07-24T22:32:52.074Z,20.47
2018-07-24T22:35:21.188Z,25.80
2018-07-24T22:37:50.593Z,27.37
2018-07-24T22:40:20.030Z,23.97
2018-07-24T22:42:50.170Z,23.70
2018-07-24T22:45:19.326Z,23.37
2018-07-24T22:47:48.685Z,24.70
2018-07-24T22:50:18.032Z,23.43
2018-07-24T22:52:47.422Z,23.67
2018-07-24T22:55:16.848Z,22.50
2018-07-24T22:57:46.012Z,20.27
2018-07-24T23:00:15.144Z,21.23
2018-07-24T23:02:44.659Z,20.27
2018-07-24T23:05:13.397Z,23.10
2018-07-24T23:07:42.496Z,22.63
2018-07-24T23:10:11.702Z,22.03
2018-07-24T23:12:40.913Z,21.63
2018-07-24T23:15:10.117Z,21.17
2018-07-24T23:17:39.460Z,22.23
2018-07-24T23:20:08.792Z,21.17
2018-07-24T23:22:37.860Z,21.67
2018-07-24T23:25:07.053Z,20.27
2018-07-24T23:27:36.276Z,22.27
2018-07-24T23:30:05.369Z,21.73
2018-07-24T23:32:35.008Z,21.97
2018-07-24T23:35:04.311Z,23.13
2018-07-24T23:37:33.460Z,23.37
2018-07-24T23:40:03.381Z,22.60
2018-07-24T23:42:32.745Z,25.13
2018-07-24T23:45:02.297Z,21.00
2018-07-24T23:47:31.597Z,20.33
2018-07-24T23:50:00.917Z,21.00
2018-07-24T23:52:30.088Z,20.70
2018-07-24T23:55:00.068Z,21.33
2018-07-24T23:57:29.076Z,19.30
2018-07-24T23:59:58.121Z,19.43
